• Join FlightAware (Why Join?)
  • Login
  • US Flag 
06:02AM EST


 

Airport Tracker/Info


-or-


 

Live Flight TrackerFlight Track Log ✈ UAL395 ✈ 20-Aug-2013 ✈ KBOS - KEWR

Flight Track Log - Related Links

Times and Time Zones

All times are in EDT time to prevent confusion due to time zone crossing. See the UAL395 flight status page for this flight to view local times or setup timezone preferences in your user account.

Time Position Orientation Groundspeed Altitude Reporting Facility
EDT Latitude Longitude Course Direction KTS MPH feet Rate Location/Type
07:24AM 42.3667 -70.9833 240° Southwest 231 266 600  Level KA90
07:26AM 42.4196 -70.7560 124° Southeast  Level FlightAware Approximate
07:26AM 42.3925 -70.7928 80° East 245 282 5,900  Level Boston Center
07:27AM 42.3435 -70.7254 172° South  Level FlightAware Approximate
07:27AM 42.3417 -70.7239 135° Southeast 250 288 9,700  Level Boston Center
07:28AM 42.2739 -70.7558 228° Southwest  Level FlightAware Approximate
07:28AM 42.2567 -70.7569 196° South 213 245 12,000  Level Boston Center
07:29AM 42.2222 -70.8427 240° Southwest  Level FlightAware Approximate
07:29AM 42.2064 -70.8900 243° Southwest 258 297 15,200  Level Boston Center
07:30AM 42.1892 -71.0139 259° West 304 350 16,000 360 Climbing Boston Center
07:31AM 42.1661 -71.1656 258° West 361 415 16,000  Level Boston Center
07:32AM 42.1486 -71.2919 259° West 383 441 16,000  Level Boston Center
07:33AM 42.1292 -71.4408 260° West 383 441 16,000  Level Boston Center
07:34AM 42.1094 -71.5669 258° West 383 441 16,000  Level Boston Center
07:35AM 42.0894 -71.7014 259° West 378 435 16,000  Level Boston Center
07:36AM 42.0675 -71.8528 259° West 373 429 16,000  Level Boston Center
07:37AM 42.0472 -71.9900 259° West 373 429 16,000  Level Boston Center
07:38AM 42.0289 -72.1131 259° West 373 429 16,000  Level Boston Center
07:39AM 42.0064 -72.2614 259° West 378 435 16,000  Level Boston Center
07:40AM 41.9878 -72.3869 259° West 369 425 16,000  Level Boston Center
07:41AM 41.9647 -72.5350 258° West 379 436 16,000  Level Boston Center
07:42AM 41.9436 -72.6717 258° West 374 430 16,000 -180 Level Boston Center
07:43AM 41.9058 -72.7861 246° West 374 430 15,700 -660 Descending Boston Center
07:44AM 41.8492 -72.9056 238° Southwest 374 430 14,700 -900 Descending Boston Center
07:45AM 41.8194 -73.0444 254° West 366 421 14,000 -360 Descending Boston Center
07:46AM 41.7978 -73.1642 256° West 366 421 14,000  Level Boston Center
07:47AM 41.7697 -73.3086 255° West 361 415 14,000  Level Boston Center
07:48AM 41.7311 -73.4358 248° West 366 421 14,100  Climbing Boston Center
07:49AM 41.6947 -73.5467 246° West 366 421 14,100 -300 Level Boston Center
07:50AM 41.6517 -73.6819 247° West 371 427 13,600 -720 Descending Boston Center
07:51AM 41.6150 -73.7894 246° West 366 421 12,700 -1,140 Descending Boston Center
07:52AM 41.5736 -73.9219 247° West 358 412 11,400 -1,200 Descending Boston Center
07:53AM 41.5411 -74.0156 245° Southwest 333 383 10,400 -960 Descending Boston Center
07:54AM 41.5000 -74.1500 248° West 285 328 9,300 -1,020 Descending New York TRACON
07:55AM 41.4667 -74.2500 246° West 284 327 8,200 -1,140 Descending New York TRACON
07:56AM 41.4000 -74.3167 217° Southwest 278 320 7,000 -660 Descending New York TRACON
07:57AM 41.3500 -74.3833 225° Southwest 282 325 7,000  Level New York TRACON
07:58AM 41.2833 -74.4500 217° Southwest 280 322 7,000 -480 Level New York TRACON
07:59AM 41.2167 -74.4167 159° South 295 339 6,100 -1,020 Descending New York TRACON
08:00AM 41.1500 -74.3500 143° Southeast 290 334 5,000 -600 Descending New York TRACON
08:01AM 41.0833 -74.3000 151° Southeast 290 334 5,000  Level New York TRACON
08:02AM 41.0167 -74.2333 143° Southeast 288 331 5,000  Level New York TRACON
08:03AM 40.9500 -74.1667 143° Southeast 288 331 5,000 -300 Level New York TRACON
08:04AM 40.9000 -74.1167 143° Southeast 277 319 4,500 -1,080 Descending New York TRACON
08:05AM 40.8500 -74.0667 143° Southeast 256 295 3,000 -1,080 Descending New York TRACON
08:06AM 40.7833 -74.1000 201° Southwest 199 229 2,400 -960 Descending New York TRACON
08:07AM 40.7500 -74.1333 217° Southwest 151 174 1,000 -1,020 Descending New York TRACON
08:08AM 40.7167 -74.1500 201° Southwest 138 159 400 -720 Descending New York TRACON